Latest Weather Observations for Melville Water

IDW60901

Issued at 9:11 am WST Tuesday 16 August 2022 (issued every 10 minutes, with the page automatically refreshed every 10 minutes)

About weather observations | Map of Perth area stations | Latest observations for Perth area | Other Formats
Station Details ID: 009091 Name: INNER DOLPHIN PYLON Lat: -31.99 Lon: 115.83 Height: 0.0 m
Data from the previous 72 hours. | See also: Recent months at Melville Water
Date/Time
WST
Temp
°C
App
Temp
°C
Dew
Point
°C
Rel
Hum
%
Delta-T
°C
Wind Press
QNH
hPa
Press
MSL
hPa
Rain since
9am
mm
Dir  Spd
km/h
Gust
km/h
Spd
kts
Gust
kts
16/09:00am - - - - - WSW 30 44 16 24 - - -
16/08:32am - - - - - WSW 32 50 17 27 - - -
16/08:30am - - - - - WSW 33 50 18 27 - - -
16/08:24am - - - - - WSW 24 50 13 27 - - -
16/08:00am - - - - - WNW 13 20 7 11 - - -
16/07:30am - - - - - W 13 20 7 11 - - -
16/07:00am - - - - - W 15 22 8 12 - - -
16/06:30am - - - - - W 19 30 10 16 - - -
16/06:00am - - - - - WSW 22 30 12 16 - - -
16/05:30am - - - - - WSW 20 30 11 16 - - -
16/05:00am - - - - - W 17 26 9 14 - - -
16/04:30am - - - - - W 15 20 8 11 - - -
16/04:00am - - - - - W 17 22 9 12 - - -
16/03:30am - - - - - W 22 32 12 17 - - -
16/03:00am - - - - - NW 20 28 11 15 - - -
16/02:30am - - - - - NNW 26 35 14 19 - - -
16/02:00am - - - - - NNW 24 37 13 20 - - -
16/01:30am - - - - - N 22 35 12 19 - - -
16/01:00am - - - - - N 22 32 12 17 - - -
16/12:30am - - - - - N 24 37 13 20 - - -
16/12:00am - - - - - N 24 35 13 19 - - -
 
Date/Time
WST
Temp
°C
App
Temp
°C
Dew
Point
°C
Rel
Hum
%
Delta-T
°C
Wind Press
QNH
hPa
Press
MSL
hPa
Rain since
9am
mm
Dir  Spd
km/h
Gust
km/h
Spd
kts
Gust
kts
15/11:30pm - - - - - NNE 30 44 16 24 - - -
15/11:00pm - - - - - NNE 22 30 12 16 - - -
15/10:30pm - - - - - NNE 17 24 9 13 - - -
15/10:00pm - - - - - NNE 19 22 10 12 - - -
15/09:30pm - - - - - NE 17 22 9 12 - - -
15/09:00pm - - - - - NE 22 28 12 15 - - -
15/08:30pm - - - - - NNE 13 20 7 11 - - -
15/08:00pm - - - - - NNE 11 17 6 9 - - -
15/07:30pm - - - - - NNW 11 13 6 7 - - -
15/07:00pm - - - - - NE 17 24 9 13 - - -
15/06:30pm - - - - - NNE 7 11 4 6 - - -
15/06:00pm - - - - - NE 6 7 3 4 - - -
15/05:30pm - - - - - NNW 4 7 2 4 - - -
15/05:00pm - - - - - SSE 6 9 3 5 - - -
15/04:30pm - - - - - SSE 6 7 3 4 - - -
15/04:00pm - - - - - NNW 2 6 1 3 - - -
15/03:30pm - - - - - NW 7 11 4 6 - - -
15/03:00pm - - - - - WNW 13 19 7 10 - - -
15/02:30pm - - - - - WNW 17 22 9 12 - - -
15/02:00pm - - - - - NW 19 28 10 15 - - -
15/01:30pm - - - - - WNW 19 32 10 17 - - -
15/01:00pm - - - - - WNW 20 32 11 17 - - -
15/12:30pm - - - - - N 26 37 14 20 - - -
15/12:00pm - - - - - N 28 39 15 21 - - -
15/11:30am - - - - - NNE 28 37 15 20 - - -
15/11:00am - - - - - NE 24 30 13 16 - - -
15/10:30am - - - - - NE 22 30 12 16 - - -
15/10:00am - - - - - NNE 17 22 9 12 - - -
15/09:30am - - - - - NNE 20 28 11 15 - - -
15/09:00am - - - - - NNE 20 26 11 14 - - -
15/08:30am - - - - - NE 15 19 8 10 - - -
15/08:00am - - - - - NE 19 26 10 14 - - -
15/07:30am - - - - - NE 17 22 9 12 - - -
15/07:00am - - - - - NE 19 24 10 13 - - -
15/06:30am - - - - - NE 19 24 10 13 - - -
15/06:00am - - - - - NE 13 19 7 10 - - -
15/05:30am - - - - - NE 13 19 7 10 - - -
15/05:00am - - - - - NE 15 19 8 10 - - -
15/04:30am - - - - - NE 15 19 8 10 - - -
15/04:00am - - - - - NE 20 26 11 14 - - -
15/03:30am - - - - - NE 19 24 10 13 - - -
15/03:00am - - - - - NE 19 22 10 12 - - -
15/02:30am - - - - - NE 19 24 10 13 - - -
15/02:00am - - - - - NE 19 24 10 13 - - -
15/01:30am - - - - - NE 19 22 10 12 - - -
15/01:00am - - - - - NE 19 24 10 13 - - -
15/12:30am - - - - - NE 20 24 11 13 - - -
15/12:00am - - - - - NE 17 19 9 10 - - -
 
Date/Time
WST
Temp
°C
App
Temp
°C
Dew
Point
°C
Rel
Hum
%
Delta-T
°C
Wind Press
QNH
hPa
Press
MSL
hPa
Rain since
9am
mm
Dir  Spd
km/h
Gust
km/h
Spd
kts
Gust
kts
14/11:30pm - - - - - NE 15 19 8 10 - - -
14/11:00pm - - - - - NE 19 22 10 12 - - -
14/10:30pm - - - - - NE 15 19 8 10 - - -
14/10:00pm - - - - - NE 15 17 8 9 - - -
14/09:30pm - - - - - NE 17 19 9 10 - - -
14/09:00pm - - - - - NE 15 17 8 9 - - -
14/08:30pm - - - - - ENE 7 11 4 6 - - -
14/08:00pm - - - - - NNE 4 6 2 3 - - -
14/07:30pm - - - - - ENE 6 7 3 4 - - -
14/07:00pm - - - - - NE 2 4 1 2 - - -
14/06:30pm - - - - - SW 4 4 2 2 - - -
14/06:00pm - - - - - SW 4 6 2 3 - - -
14/05:30pm - - - - - SW 4 4 2 2 - - -
14/05:00pm - - - - - SSW 6 7 3 4 - - -
14/04:30pm - - - - - SSW 6 7 3 4 - - -
14/04:00pm - - - - - SSW 6 7 3 4 - - -
14/03:30pm - - - - - ESE 4 6 2 3 - - -
14/03:00pm - - - - - CALM 0 4 0 2 - - -
14/02:30pm - - - - - SE 4 4 2 2 - - -
14/02:00pm - - - - - ESE 6 6 3 3 - - -
14/01:30pm - - - - - NE 6 7 3 4 - - -
14/01:00pm - - - - - N 7 13 4 7 - - -
14/12:30pm - - - - - ESE 6 7 3 4 - - -
14/12:00pm - - - - - E 9 11 5 6 - - -
14/11:30am - - - - - NE 9 13 5 7 - - -
14/11:00am - - - - - NE 13 17 7 9 - - -
14/10:30am - - - - - NE 15 20 8 11 - - -
14/10:00am - - - - - E 6 7 3 4 - - -
14/09:30am - - - - - NE 11 15 6 8 - - -
14/09:00am - - - - - NE 6 11 3 6 - - -
14/08:30am - - - - - NE 7 11 4 6 - - -
14/08:00am - - - - - NE 7 11 4 6 - - -
14/07:30am - - - - - NE 11 15 6 8 - - -
14/07:00am - - - - - ENE 13 15 7 8 - - -
14/06:30am - - - - - E 7 11 4 6 - - -
14/06:00am - - - - - NNE 9 11 5 6 - - -
14/05:30am - - - - - NNE 11 13 6 7 - - -
14/05:00am - - - - - NE 9 13 5 7 - - -
14/04:30am - - - - - E 11 13 6 7 - - -
14/04:00am - - - - - NNE 11 13 6 7 - - -
14/03:30am - - - - - ESE 9 11 5 6 - - -
14/03:00am - - - - - ENE 4 7 2 4 - - -
14/02:30am - - - - - N 6 6 3 3 - - -
14/02:00am - - - - - ESE 4 6 2 3 - - -
14/01:30am - - - - - SSW 11 13 6 7 - - -
14/01:00am - - - - - WSW 7 15 4 8 - - -
14/12:30am - - - - - WSW 7 9 4 5 - - -
14/12:00am - - - - - SW 24 33 13 18 - - -
 
Date/Time
WST
Temp
°C
App
Temp
°C
Dew
Point
°C
Rel
Hum
%
Delta-T
°C
Wind Press
QNH
hPa
Press
MSL
hPa
Rain since
9am
mm
Dir  Spd
km/h
Gust
km/h
Spd
kts
Gust
kts
13/11:30pm - - - - - SSW 17 19 9 10 - - -
13/11:00pm - - - - - SSW 17 19 9 10 - - -
13/10:30pm - - - - - SW 22 33 12 18 - - -
13/10:00pm - - - - - SW 20 33 11 18 - - -
13/09:30pm - - - - - SW 30 39 16 21 - - -
13/09:00pm - - - - - WSW 24 33 13 18 - - -
13/08:30pm - - - - - SW 24 33 13 18 - - -
13/08:00pm - - - - - WSW 28 39 15 21 - - -
13/07:38pm - - - - - W 28 46 15 25 - - -
13/07:30pm - - - - - W 22 30 12 16 - - -
13/07:00pm - - - - - W 22 39 12 21 - - -
13/06:30pm - - - - - W 20 30 11 16 - - -
13/06:00pm - - - - - WNW 17 26 9 14 - - -
13/05:54pm - - - - - WNW 17 26 9 14 - - -
13/05:39pm - - - - - W 37 59 20 32 - - -
13/05:34pm - - - - - W 28 59 15 32 - - -
13/05:30pm - - - - - WNW 20 33 11 18 - - -
13/05:00pm - - - - - W 32 46 17 25 - - -
13/04:56pm - - - - - WNW 28 46 15 25 - - -
13/04:30pm - - - - - WNW 26 44 14 24 - - -
13/04:00pm - - - - - WNW 17 24 9 13 - - -
13/03:42pm - - - - - W 28 59 15 32 - - -
13/03:30pm - - - - - W 26 44 14 24 - - -
13/03:19pm - - - - - WNW 22 48 12 26 - - -
13/03:00pm - - - - - NNW 13 24 7 13 - - -
13/02:30pm - - - - - N 15 22 8 12 - - -
13/02:00pm - - - - - N 26 33 14 18 - - -
13/01:30pm - - - - - N 24 35 13 19 - - -
13/01:01pm - - - - - N 37 56 20 30 - - -
13/01:00pm - - - - - N 37 50 20 27 - - -
13/12:30pm - - - - - NNE 39 54 21 29 - - -
13/12:16pm - - - - - NNE 33 52 18 28 - - -
13/12:00pm - - - - - NNE 24 35 13 19 - - -
13/11:30am - - - - - NNE 30 39 16 21 - - -
13/11:03am - - - - - NNE 28 46 15 25 - - -
13/11:00am - - - - - N 26 35 14 19 - - -
13/10:30am - - - - - NNE 30 39 16 21 - - -
13/10:00am - - - - - NNE 33 48 18 26 - - -
13/09:30am - - - - - NNE 30 41 16 22 - - -

Latest Capital City Observations: Canberra | Sydney | Melbourne | Brisbane | Adelaide | Perth | Hobart | Darwin

Other formats

Comma delimited format used in spreadsheet applications
http://www.bom.gov.au/fwo/IDW60901/IDW60901.95620.axf

JavaScript Object Notation format (JSON) in row-major order
http://www.bom.gov.au/fwo/IDW60901/IDW60901.95620.json

Data quality

Most of these data are generated automatically and are frequently updated. Quality checks on data are not normally performed. It is possible for incorrect values to appear. Refer to information at About Latest Weather Observations and please check the disclaimer before using these data.